^^
Saratoga-Weather Station Historical Data
Daily Summary for June 25, 2020 Units:  Metric    English   Both
Daily Weekly Monthly Yearly Custom
  High: Low: Average:
Temperature: 27.9 °C 11.3 °C 19.3 °C
Dew Point: 15.1 °C 9.9 °C 11.8 °C
Humidity: 92% 35% 66%
Wind Speed: 25.9km/h 0km/h 2.1km/h
Wind Gust: 25.7km/h - -
Wind- - South
Pressure: 1015.6 hPa 1005.4 hPa -
Precipitation: 0.0 mm    
Historical Graphs
 
 
Tabular Data for June 25, 2020
Time Temperature Dew Point Pressure Wind Wind Speed Wind Gust Humidity Rainfall Rate (Hourly) solar
00:00 16.1 °C 11.1 °C 1015.6 hPa Calm     72% 0.0 mm 0 W/m2
00:05 15.9 °C 11.1 °C 1015.6 hPa Calm     73% 0.0 mm 0 W/m2
00:10 15.7 °C 10.9 °C 1015.6 hPa Calm     73% 0.0 mm 0 W/m2
00:15 15.6 °C 11 °C 1015.6 hPa Calm     74% 0.0 mm 0 W/m2
00:20 15.4 °C 10.8 °C 1015.6 hPa Calm     74% 0.0 mm 0 W/m2
00:25 15.3 °C 10.9 °C 1015.6 hPa Calm     75% 0.0 mm 0 W/m2
00:30 15.2 °C 10.8 °C 1015.6 hPa Calm     75% 0.0 mm 0 W/m2
00:35 15.1 °C 10.9 °C 1015.6 hPa Calm     76% 0.0 mm 0 W/m2
00:40 14.9 °C 10.7 °C 1015.6 hPa Calm     76% 0.0 mm 0 W/m2
00:45 14.8 °C 10.8 °C 1015.6 hPa West 1.4 km/h 1.6 km/h 77% 0.0 mm 0 W/m2
00:50 14.8 °C 11 °C 1015.6 hPa Calm     78% 0.0 mm 0 W/m2
00:55 14.7 °C 10.9 °C 1015.6 hPa Calm   1.6 km/h 78% 0.0 mm 0 W/m2
01:00 14.6 °C 10.8 °C 1015.6 hPa Calm     78% 0.0 mm 0 W/m2
01:06 14.4 °C 10.6 °C 1015.2 hPa Calm     78% 0.0 mm 0 W/m2
01:11 14.3 °C 10.7 °C 1015.2 hPa Calm     79% 0.0 mm 0 W/m2
01:16 14.3 °C 10.9 °C 1015.2 hPa Calm     80% 0.0 mm 0 W/m2
01:21 14.2 °C 10.8 °C 1015.2 hPa Calm     80% 0.0 mm 0 W/m2
01:26 14.2 °C 10.8 °C 1015.2 hPa Calm     80% 0.0 mm 0 W/m2
01:31 14.1 °C 10.7 °C 1015.2 hPa Calm     80% 0.0 mm 0 W/m2
01:36 13.9 °C 10.7 °C 1015.2 hPa Calm     81% 0.0 mm 0 W/m2
01:41 13.9 °C 10.7 °C 1015.2 hPa Calm     81% 0.0 mm 0 W/m2
01:46 13.9 °C 10.7 °C 1015.2 hPa Calm     81% 0.0 mm 0 W/m2
01:51 13.8 °C 10.8 °C 1015.2 hPa Calm     82% 0.0 mm 0 W/m2
01:56 13.8 °C 10.6 °C 1015.2 hPa Calm     81% 0.0 mm 0 W/m2
02:01 13.7 °C 10.7 °C 1014.9 hPa Calm     82% 0.0 mm 0 W/m2
02:06 13.6 °C 10.6 °C 1014.9 hPa Calm   1.6 km/h 82% 0.0 mm 0 W/m2
02:11 13.6 °C 10.6 °C 1014.9 hPa Calm     82% 0.0 mm 0 W/m2
02:16 13.4 °C 10.6 °C 1014.9 hPa Calm     83% 0.0 mm 0 W/m2
02:21 13.3 °C 10.5 °C 1014.9 hPa Calm     83% 0.0 mm 0 W/m2
02:26 13.3 °C 10.7 °C 1014.9 hPa Calm     84% 0.0 mm 0 W/m2
02:31 13.2 °C 10.6 °C 1014.9 hPa Calm     84% 0.0 mm 0 W/m2
02:36 13.2 °C 10.6 °C 1014.9 hPa Calm     84% 0.0 mm 0 W/m2
02:41 13.1 °C 10.5 °C 1014.9 hPa Calm   1.6 km/h 84% 0.0 mm 0 W/m2
02:46 13.1 °C 10.6 °C 1014.9 hPa Calm   1.6 km/h 85% 0.0 mm 0 W/m2
02:51 12.9 °C 10.4 °C 1014.9 hPa Calm     85% 0.0 mm 0 W/m2
02:56 12.8 °C 10.3 °C 1014.6 hPa Calm     85% 0.0 mm 0 W/m2
03:01 12.8 °C 10.5 °C 1014.6 hPa Calm     86% 0.0 mm 0 W/m2
03:06 12.8 °C 10.5 °C 1014.6 hPa Calm     86% 0.0 mm 0 W/m2
03:11 12.7 °C 10.6 °C 1014.6 hPa Calm     87% 0.0 mm 0 W/m2
03:16 12.7 °C 10.6 °C 1014.6 hPa Calm     87% 0.0 mm 0 W/m2
03:21 12.6 °C 10.5 °C 1014.6 hPa Calm     87% 0.0 mm 0 W/m2
03:26 12.6 °C 10.5 °C 1014.6 hPa Calm     87% 0.0 mm 0 W/m2
03:31 12.5 °C 10.6 °C 1014.6 hPa Calm     88% 0.0 mm 0 W/m2
03:36 12.5 °C 10.6 °C 1014.6 hPa Calm     88% 0.0 mm 0 W/m2
03:41 12.6 °C 10.7 °C 1014.6 hPa Calm   1.6 km/h 88% 0.0 mm 0 W/m2
03:46 12.6 °C 10.7 °C 1014.2 hPa Calm     88% 0.0 mm 0 W/m2
03:51 12.5 °C 10.6 °C 1014.6 hPa Calm   1.6 km/h 88% 0.0 mm 0 W/m2
03:56 12.4 °C 10.5 °C 1014.2 hPa Calm     88% 0.0 mm 0 W/m2
04:01 12.4 °C 10.5 °C 1014.2 hPa Calm     88% 0.0 mm 0 W/m2
04:06 12.4 °C 10.5 °C 1014.2 hPa Calm     88% 0.0 mm 0 W/m2
04:11 12.4 °C 10.5 °C 1014.2 hPa Calm     88% 0.0 mm 0 W/m2
04:16 12.4 °C 10.5 °C 1014.2 hPa Calm     88% 0.0 mm 0 W/m2
04:21 12.3 °C 10.4 °C 1014.2 hPa Calm     88% 0.0 mm 0 W/m2
04:26 12.3 °C 10.4 °C 1014.2 hPa Calm     88% 0.0 mm 0 W/m2
04:31 12.2 °C 10.3 °C 1013.9 hPa Calm     88% 0.0 mm 0 W/m2
04:36 12.1 °C 10.2 °C 1013.9 hPa Calm     88% 0.0 mm 0 W/m2
04:41 12.1 °C 10.3 °C 1013.9 hPa Calm     89% 0.0 mm 0 W/m2
04:46 12 °C 10.2 °C 1013.9 hPa Calm     89% 0.0 mm 0 W/m2
04:51 11.9 °C 10.1 °C 1013.9 hPa Calm     89% 0.0 mm 0 W/m2
04:56 11.8 °C 10 °C 1013.9 hPa Calm     89% 0.0 mm 0 W/m2
05:01 11.8 °C 10.2 °C 1013.5 hPa Calm     90% 0.0 mm 0 W/m2
05:06 11.8 °C 10.2 °C 1013.5 hPa Calm     90% 0.0 mm 0 W/m2
05:11 11.7 °C 10.1 °C 1013.5 hPa Calm     90% 0.0 mm 0 W/m2
05:16 11.7 °C 10.1 °C 1013.5 hPa Calm     90% 0.0 mm 0 W/m2
05:21 11.6 °C 10 °C 1013.5 hPa Calm     90% 0.0 mm 0 W/m2
05:26 11.6 °C 10.2 °C 1013.5 hPa Calm     91% 0.0 mm 0 W/m2
05:31 11.6 °C 10.2 °C 1013.2 hPa Calm     91% 0.0 mm 0 W/m2
05:36 11.5 °C 10.1 °C 1013.2 hPa Calm     91% 0.0 mm 0 W/m2
05:41 11.4 °C 10 °C 1013.2 hPa Calm     91% 0.0 mm 0 W/m2
05:46 11.4 °C 10 °C 1013.2 hPa Calm     91% 0.0 mm 0 W/m2
05:52 11.3 °C 9.9 °C 1013.2 hPa Calm     91% 0.0 mm 0 W/m2
05:57 11.3 °C 9.9 °C 1013.2 hPa Calm     91% 0.0 mm 0 W/m2
06:02 11.3 °C 9.9 °C 1013.2 hPa Calm     91% 0.0 mm 0 W/m2
06:07 11.3 °C 10 °C 1013.2 hPa Calm     92% 0.0 mm 0 W/m2
06:12 11.3 °C 10 °C 1013.2 hPa Calm     92% 0.0 mm 0 W/m2
06:17 11.3 °C 10 °C 1013.2 hPa Calm     92% 0.0 mm 0 W/m2
06:22 11.3 °C 10 °C 1013.2 hPa Calm     92% 0.0 mm 0 W/m2
06:27 11.4 °C 10.1 °C 1013.2 hPa Calm     92% 0.0 mm 0 W/m2
06:32 11.4 °C 10.1 °C 1013.2 hPa Calm     92% 0.0 mm 5 W/m2
06:37 11.5 °C 10.2 °C 1013.2 hPa Calm     92% 0.0 mm 9 W/m2
06:42 11.6 °C 10.3 °C 1013.2 hPa Calm     92% 0.0 mm 9 W/m2
06:47 11.6 °C 10.3 °C 1013.2 hPa Calm     92% 0.0 mm 7 W/m2
06:52 11.7 °C 10.4 °C 1013.2 hPa Calm     92% 0.0 mm 9 W/m2
06:57 11.8 °C 10.5 °C 1013.2 hPa Calm   1.6 km/h 92% 0.0 mm 11 W/m2
07:02 11.9 °C 10.6 °C 1013.5 hPa Calm     92% 0.0 mm 12 W/m2
07:07 12 °C 10.7 °C 1013.5 hPa Calm     92% 0.0 mm 11 W/m2
07:12 12.1 °C 10.7 °C 1013.5 hPa Calm     91% 0.0 mm 12 W/m2
07:17 12.2 °C 10.8 °C 1013.5 hPa Calm     91% 0.0 mm 14 W/m2
07:22 12.2 °C 10.8 °C 1013.5 hPa Calm     91% 0.0 mm 18 W/m2
07:27 12.3 °C 10.9 °C 1013.5 hPa Calm     91% 0.0 mm 21 W/m2
07:32 12.3 °C 10.7 °C 1013.5 hPa Calm     90% 0.0 mm 21 W/m2
07:37 12.4 °C 10.8 °C 1013.5 hPa Calm   1.6 km/h 90% 0.0 mm 23 W/m2
07:42 12.4 °C 10.8 °C 1013.5 hPa Calm     90% 0.0 mm 28 W/m2
07:47 12.6 °C 11 °C 1013.5 hPa Calm     90% 0.0 mm 33 W/m2
07:52 12.7 °C 10.9 °C 1013.5 hPa Calm   1.6 km/h 89% 0.0 mm 33 W/m2
07:57 12.8 °C 11 °C 1013.5 hPa West 1.4 km/h 3.2 km/h 89% 0.0 mm 37 W/m2
08:02 12.8 °C 11 °C 1013.5 hPa Calm   1.6 km/h 89% 0.0 mm 39 W/m2
08:07 12.9 °C 11.1 °C 1013.5 hPa Calm     89% 0.0 mm 40 W/m2
08:12 12.9 °C 11 °C 1013.5 hPa Calm   1.6 km/h 88% 0.0 mm 42 W/m2
08:17 13.1 °C 11.2 °C 1013.5 hPa Calm     88% 0.0 mm 40 W/m2
08:22 13.1 °C 11.2 °C 1013.2 hPa NE 1.4 km/h 4.8 km/h 88% 0.0 mm 42 W/m2
08:27 13.2 °C 11.3 °C 1013.2 hPa Calm     88% 0.0 mm 60 W/m2
08:32 13.3 °C 11.4 °C 1013.2 hPa Calm   4.8 km/h 88% 0.0 mm 70 W/m2
08:37 13.3 °C 11.2 °C 1013.5 hPa Calm   1.6 km/h 87% 0.0 mm 65 W/m2
08:42 13.3 °C 11.2 °C 1013.5 hPa Calm   1.6 km/h 87% 0.0 mm 62 W/m2
08:47 13.4 °C 11.3 °C 1013.5 hPa NE 1.4 km/h 1.6 km/h 87% 0.0 mm 60 W/m2
08:52 13.4 °C 11.3 °C 1013.5 hPa Calm     87% 0.0 mm 58 W/m2
08:57 13.5 °C 11.4 °C 1013.5 hPa Calm   1.6 km/h 87% 0.0 mm 54 W/m2
09:02 13.5 °C 11.4 °C 1013.5 hPa Calm     87% 0.0 mm 53 W/m2
09:07 13.6 °C 11.3 °C 1013.5 hPa Calm     86% 0.0 mm 54 W/m2
09:12 13.7 °C 11.4 °C 1013.5 hPa Calm   1.6 km/h 86% 0.0 mm 54 W/m2
09:17 13.7 °C 11.4 °C 1013.5 hPa Calm     86% 0.0 mm 58 W/m2
09:22 13.8 °C 11.5 °C 1013.5 hPa Calm     86% 0.0 mm 60 W/m2
09:27 13.9 °C 11.6 °C 1013.5 hPa Calm     86% 0.0 mm 60 W/m2
09:32 13.9 °C 11.6 °C 1013.5 hPa Calm     86% 0.0 mm 67 W/m2
09:37 14 °C 11.7 °C 1013.5 hPa Calm     86% 0.0 mm 74 W/m2
09:42 14.1 °C 12 °C 1013.5 hPa Calm     87% 0.0 mm 83 W/m2
09:47 14.2 °C 12.1 °C 1013.5 hPa Calm     87% 0.0 mm 100 W/m2
09:52 14.3 °C 12.2 °C 1013.2 hPa Calm     87% 0.0 mm 114 W/m2
09:57 14.4 °C 12.3 °C 1013.2 hPa East 1.4 km/h 3.2 km/h 87% 0.0 mm 116 W/m2
10:02 14.4 °C 12.3 °C 1013.2 hPa East 1.4 km/h 3.2 km/h 87% 0.0 mm 155 W/m2
10:07 14.5 °C 12.4 °C 1013.2 hPa Calm   1.6 km/h 87% 0.0 mm 178 W/m2
10:12 14.7 °C 12.6 °C 1013.2 hPa Calm   3.2 km/h 87% 0.0 mm 195 W/m2
10:17 14.8 °C 12.5 °C 1013.2 hPa Calm   1.6 km/h 86% 0.0 mm 172 W/m2
10:22 14.9 °C 12.4 °C 1013.2 hPa Calm   3.2 km/h 85% 0.0 mm 165 W/m2
10:27 15 °C 12.3 °C 1013.2 hPa Calm   1.6 km/h 84% 0.0 mm 190 W/m2
10:32 15.1 °C 12.4 °C 1013.2 hPa East 1.4 km/h 4.8 km/h 84% 0.0 mm 125 W/m2
10:37 15.1 °C 12.2 °C 1012.9 hPa ESE 3.2 km/h 4.8 km/h 83% 0.0 mm 230 W/m2
10:42 15.1 °C 12.4 °C 1012.9 hPa SE 3.2 km/h 4.8 km/h 84% 0.0 mm 206 W/m2
10:47 15.2 °C 12.5 °C 1012.9 hPa ESE 4.7 km/h 4.8 km/h 84% 0.0 mm 221 W/m2
10:52 15.3 °C 12.6 °C 1012.5 hPa ENE 3.2 km/h 3.2 km/h 84% 0.0 mm 236 W/m2
10:57 15.5 °C 12.6 °C 1012.5 hPa NE 3.2 km/h 4.8 km/h 83% 0.0 mm 301 W/m2
11:02 15.8 °C 12.9 °C 1012.5 hPa ESE 3.2 km/h 3.2 km/h 83% 0.0 mm 318 W/m2
11:07 16 °C 12.9 °C 1012.5 hPa NE 7.9 km/h 8 km/h 82% 0.0 mm 267 W/m2
11:12 16.1 °C 12.8 °C 1012.5 hPa ENE 3.2 km/h 4.8 km/h 81% 0.0 mm 248 W/m2
11:17 16.3 °C 13 °C 1012.2 hPa ESE 3.2 km/h 6.4 km/h 81% 0.0 mm 271 W/m2
11:22 16.5 °C 13.2 °C 1012.2 hPa Calm   1.6 km/h 81% 0.0 mm 302 W/m2
11:27 16.8 °C 13.3 °C 1012.2 hPa NE 1.4 km/h 3.2 km/h 80% 0.0 mm 318 W/m2
11:32 17.1 °C 13.4 °C 1011.9 hPa Calm   1.6 km/h 79% 0.0 mm 332 W/m2
11:37 17.3 °C 13 °C 1011.9 hPa NE 1.4 km/h 3.2 km/h 76% 0.0 mm 288 W/m2
11:42 17.6 °C 13.1 °C 1011.9 hPa NNE 1.4 km/h 3.2 km/h 75% 0.0 mm 295 W/m2
11:47 17.9 °C 13.6 °C 1011.9 hPa Calm     76% 0.0 mm 279 W/m2
11:52 18.3 °C 13.6 °C 1011.9 hPa NE 1.4 km/h 6.4 km/h 74% 0.0 mm 279 W/m2
11:57 18.5 °C 13.6 °C 1011.9 hPa NNE 3.2 km/h 4.8 km/h 73% 0.0 mm 272 W/m2
12:02 18.7 °C 13.8 °C 1011.9 hPa Calm   1.6 km/h 73% 0.0 mm 244 W/m2
12:07 18.9 °C 14 °C 1011.5 hPa Calm   3.2 km/h 73% 0.0 mm 315 W/m2
12:12 19.2 °C 14 °C 1011.5 hPa ENE 3.2 km/h 9.7 km/h 72% 0.0 mm 374 W/m2
12:17 19.4 °C 13.6 °C 1011.5 hPa ENE 3.2 km/h 4.8 km/h 69% 0.0 mm 387 W/m2
12:22 19.5 °C 13.7 °C 1011.5 hPa North 3.2 km/h 3.2 km/h 69% 0.0 mm 258 W/m2
12:27 19.7 °C 13.9 °C 1011.5 hPa East 3.2 km/h 4.8 km/h 69% 0.0 mm 253 W/m2
12:32 19.8 °C 13.7 °C 1011.5 hPa ENE 1.4 km/h 4.8 km/h 68% 0.0 mm 214 W/m2
12:37 19.9 °C 13.8 °C 1011.2 hPa East 1.4 km/h 3.2 km/h 68% 0.0 mm 216 W/m2
12:43 20 °C 13.9 °C 1011.2 hPa East 3.2 km/h 4.8 km/h 68% 0.0 mm 234 W/m2
12:48 20.2 °C 13.6 °C 1011.2 hPa ENE 4.7 km/h 9.7 km/h 66% 0.0 mm 271 W/m2
12:53 20.3 °C 13.7 °C 1011.2 hPa SE 3.2 km/h 6.4 km/h 66% 0.0 mm 251 W/m2
12:58 20.5 °C 14.2 °C 1011.2 hPa West 3.2 km/h 4.8 km/h 67% 0.0 mm 257 W/m2
13:03 20.7 °C 13.9 °C 1011.2 hPa SW 1.4 km/h 6.4 km/h 65% 0.0 mm 250 W/m2
13:08 20.8 °C 13.5 °C 1011.2 hPa North 1.4 km/h 3.2 km/h 63% 0.0 mm 239 W/m2
13:13 20.8 °C 13 °C 1010.8 hPa Calm   4.8 km/h 61% 0.0 mm 264 W/m2
13:18 21.1 °C 13.3 °C 1010.8 hPa Calm   1.6 km/h 61% 0.0 mm 241 W/m2
13:23 21.2 °C 12.9 °C 1010.8 hPa NW 3.2 km/h 11.3 km/h 59% 0.0 mm 248 W/m2
13:28 21.3 °C 13 °C 1010.5 hPa NE 1.4 km/h 6.4 km/h 59% 0.0 mm 364 W/m2
13:33 21.6 °C 12.7 °C 1010.2 hPa North 3.2 km/h 11.3 km/h 57% 0.0 mm 378 W/m2
13:38 21.8 °C 13.4 °C 1010.2 hPa ENE 1.4 km/h 8 km/h 59% 0.0 mm 497 W/m2
13:43 22.3 °C 13.6 °C 1010.2 hPa NE 1.4 km/h 4.8 km/h 58% 0.0 mm 404 W/m2
13:48 22.7 °C 13.7 °C 1010.2 hPa SW 1.4 km/h 4.8 km/h 57% 0.0 mm 346 W/m2
13:53 22.8 °C 13.8 °C 1010.2 hPa ENE 4.7 km/h 4.8 km/h 57% 0.0 mm 285 W/m2
13:58 22.8 °C 14.1 °C 1010.2 hPa NW 3.2 km/h 4.8 km/h 58% 0.0 mm 299 W/m2
14:03 22.8 °C 14.1 °C 1010.2 hPa East 3.2 km/h 6.4 km/h 58% 0.0 mm 295 W/m2
14:08 22.8 °C 13.8 °C 1010.2 hPa East 1.4 km/h 4.8 km/h 57% 0.0 mm 304 W/m2
14:13 22.8 °C 13.8 °C 1010.2 hPa North 1.4 km/h 6.4 km/h 57% 0.0 mm 443 W/m2
14:18 23 °C 14 °C 1009.8 hPa ENE 1.4 km/h 9.7 km/h 57% 0.0 mm 403 W/m2
14:23 23.1 °C 14.1 °C 1009.8 hPa NE 3.2 km/h 12.9 km/h 57% 0.0 mm 274 W/m2
14:28 22.9 °C 13.9 °C 1009.8 hPa NNE 1.4 km/h 3.2 km/h 57% 0.0 mm 271 W/m2
14:33 23.1 °C 14.1 °C 1009.5 hPa East 11.1 km/h 14.5 km/h 57% 0.0 mm 462 W/m2
14:38 23.5 °C 14.2 °C 1009.5 hPa East 9.7 km/h 14.5 km/h 56% 0.0 mm 1030 W/m2
14:44 23.9 °C 14 °C 1009.1 hPa NW 1.4 km/h 9.7 km/h 54% 0.0 mm 1069 W/m2
14:49 24.4 °C 14.2 °C 1009.1 hPa NE 7.9 km/h 12.9 km/h 53% 0.0 mm 522 W/m2
14:54 24.4 °C 14.5 °C 1009.1 hPa NE 6.4 km/h 9.7 km/h 54% 0.0 mm 889 W/m2
14:59 24.6 °C 14.4 °C 1009.1 hPa NE 3.2 km/h 11.3 km/h 53% 0.0 mm 359 W/m2
15:04 24.7 °C 14.5 °C 1009.1 hPa SE 4.7 km/h 8 km/h 53% 0.0 mm 325 W/m2
15:09 24.6 °C 14.1 °C 1009.1 hPa East 4.7 km/h 6.4 km/h 52% 0.0 mm 237 W/m2
15:14 24.7 °C 13.6 °C 1008.8 hPa SE 3.2 km/h 8 km/h 50% 0.0 mm 977 W/m2
15:19 25.1 °C 13.9 °C 1008.8 hPa SW 4.7 km/h 8 km/h 50% 0.0 mm 846 W/m2
15:24 25.6 °C 13.1 °C 1008.8 hPa NE 6.4 km/h 9.7 km/h 46% 0.0 mm 439 W/m2
15:29 25.6 °C 12.8 °C 1008.5 hPa Calm   8 km/h 45% 0.0 mm 315 W/m2
15:34 25.7 °C 12.2 °C 1008.8 hPa NE 4.7 km/h 4.8 km/h 43% 0.0 mm 334 W/m2
15:39 25.8 °C 11.9 °C 1008.5 hPa WNW 6.4 km/h 17.7 km/h 42% 0.0 mm 355 W/m2
15:44 25.8 °C 11.9 °C 1008.5 hPa ENE 3.2 km/h 3.2 km/h 42% 0.0 mm 232 W/m2
15:49 25.8 °C 11.9 °C 1008.5 hPa ENE 3.2 km/h 6.4 km/h 42% 0.0 mm 206 W/m2
15:54 25.7 °C 11.8 °C 1008.1 hPa NW 3.2 km/h 3.2 km/h 42% 0.0 mm 193 W/m2
15:59 25.5 °C 11.6 °C 1008.1 hPa North 1.4 km/h 4.8 km/h 42% 0.0 mm 316 W/m2
16:04 25.8 °C 11.9 °C 1007.8 hPa SW 1.4 km/h 4.8 km/h 42% 0.0 mm 809 W/m2
16:09 26.2 °C 11.9 °C 1007.8 hPa WNW 3.2 km/h 4.8 km/h 41% 0.0 mm 719 W/m2
16:14 26.4 °C 12.1 °C 1007.5 hPa ENE 3.2 km/h 11.3 km/h 41% 0.0 mm 613 W/m2
16:19 26.8 °C 11.7 °C 1007.5 hPa NNE 1.4 km/h 12.9 km/h 39% 0.0 mm 601 W/m2
16:24 26.8 °C 11.7 °C 1007.5 hPa East 9.7 km/h 11.3 km/h 39% 0.0 mm 589 W/m2
16:29 26.9 °C 12.2 °C 1007.5 hPa NNW 4.7 km/h 9.7 km/h 40% 0.0 mm 626 W/m2
16:34 27 °C 11.9 °C 1007.1 hPa ENE 1.4 km/h 8 km/h 39% 0.0 mm 599 W/m2
16:39 27.1 °C 12 °C 1007.1 hPa ENE 3.2 km/h 6.4 km/h 39% 0.0 mm 617 W/m2
16:44 27.2 °C 11.6 °C 1007.1 hPa WSW 1.4 km/h 4.8 km/h 38% 0.0 mm 598 W/m2
16:49 27.6 °C 12.4 °C 1007.1 hPa North 7.9 km/h 8 km/h 39% 0.0 mm 599 W/m2
16:54 27.7 °C 11.7 °C 1007.1 hPa Calm   6.4 km/h 37% 0.0 mm 613 W/m2
16:59 27.8 °C 11.8 °C 1006.8 hPa NW 13 km/h 14.5 km/h 37% 0.0 mm 584 W/m2
17:04 27.8 °C 11.8 °C 1006.8 hPa SE 3.2 km/h 8 km/h 37% 0.0 mm 160 W/m2
17:09 27.8 °C 11.4 °C 1006.4 hPa East 3.2 km/h 8 km/h 36% 0.0 mm 649 W/m2
17:14 27.9 °C 11.4 °C 1006.4 hPa NNE 3.2 km/h 4.8 km/h 36% 0.0 mm 582 W/m2
17:19 27.9 °C 11.9 °C 1006.4 hPa NE 4.7 km/h 6.4 km/h 37% 0.0 mm 360 W/m2
17:24 27.9 °C 11.4 °C 1006.4 hPa ENE 1.4 km/h 4.8 km/h 36% 0.0 mm 179 W/m2
17:29 27.8 °C 11.8 °C 1006.4 hPa NNE 1.4 km/h 4.8 km/h 37% 0.0 mm 130 W/m2
17:34 27.6 °C 12 °C 1006.4 hPa East 3.2 km/h 4.8 km/h 38% 0.0 mm 163 W/m2
17:39 27.3 °C 11.7 °C 1006.4 hPa ENE 6.4 km/h 6.4 km/h 38% 0.0 mm 151 W/m2
17:44 27.1 °C 11.6 °C 1006.4 hPa East 3.2 km/h 6.4 km/h 38% 0.0 mm 130 W/m2
17:49 27.1 °C 12 °C 1006.1 hPa ENE 6.4 km/h 8 km/h 39% 0.0 mm 121 W/m2
17:54 27.1 °C 11.6 °C 1006.1 hPa ESE 1.4 km/h 8 km/h 38% 0.0 mm 111 W/m2
17:59 27.1 °C 11.6 °C 1006.1 hPa ENE 1.4 km/h 11.3 km/h 38% 0.0 mm 125 W/m2
18:04 27.2 °C 11.2 °C 1006.1 hPa Calm   3.2 km/h 37% 0.0 mm 158 W/m2
18:09 27.2 °C 10.8 °C 1006.1 hPa WNW 4.7 km/h 12.9 km/h 36% 0.0 mm 88 W/m2
18:14 27.3 °C 11.3 °C 1006.1 hPa NW 4.7 km/h 6.4 km/h 37% 0.0 mm 81 W/m2
18:19 27.3 °C 11.3 °C 1006.1 hPa NW 1.4 km/h 11.3 km/h 37% 0.0 mm 86 W/m2
18:24 27.2 °C 10.4 °C 1006.1 hPa Calm   4.8 km/h 35% 0.0 mm 69 W/m2
18:29 27.3 °C 10.5 °C 1005.8 hPa NE 1.4 km/h 6.4 km/h 35% 0.0 mm 86 W/m2
18:34 27.2 °C 11.2 °C 1005.8 hPa NNW 6.4 km/h 9.7 km/h 37% 0.0 mm 100 W/m2
18:39 27.2 °C 10.8 °C 1005.8 hPa South 1.4 km/h 6.4 km/h 36% 0.0 mm 83 W/m2
18:44 27.2 °C 11.2 °C 1005.8 hPa Calm   9.7 km/h 37% 0.0 mm 93 W/m2
18:49 27.1 °C 10.7 °C 1005.8 hPa NW 1.4 km/h 3.2 km/h 36% 0.0 mm 123 W/m2
18:54 27.2 °C 10.8 °C 1005.8 hPa NW 1.4 km/h 4.8 km/h 36% 0.0 mm 98 W/m2
18:59 27.2 °C 11.2 °C 1005.8 hPa Calm   3.2 km/h 37% 0.0 mm 77 W/m2
19:04 27.3 °C 11.3 °C 1005.8 hPa SSE 1.4 km/h 3.2 km/h 37% 0.0 mm 225 W/m2
19:09 27.3 °C 11.7 °C 1005.8 hPa WNW 3.2 km/h 4.8 km/h 38% 0.0 mm 83 W/m2
19:14 27.3 °C 10.5 °C 1005.8 hPa NW 1.4 km/h 4.8 km/h 35% 0.0 mm 67 W/m2
19:19 27.4 °C 10.6 °C 1005.8 hPa WNW 11.1 km/h 19.3 km/h 35% 0.0 mm 37 W/m2
19:24 27.6 °C 10.8 °C 1005.8 hPa NNE 7.9 km/h 8 km/h 35% 0.0 mm 63 W/m2
19:29 27.6 °C 10.8 °C 1005.8 hPa WNW 3.2 km/h 6.4 km/h 35% 0.0 mm 58 W/m2
19:34 27.7 °C 10.8 °C 1005.8 hPa NW 7.9 km/h 16.1 km/h 35% 0.0 mm 70 W/m2
19:39 27.7 °C 10.8 °C 1005.8 hPa WSW 6.4 km/h 9.7 km/h 35% 0.0 mm 53 W/m2
19:44 27.7 °C 10.8 °C 1005.4 hPa West 4.7 km/h 9.7 km/h 35% 0.0 mm 39 W/m2
19:49 27.6 °C 10.8 °C 1005.4 hPa WNW 7.9 km/h 8 km/h 35% 0.0 mm 25 W/m2
19:54 27.4 °C 10.6 °C 1005.8 hPa West 3.2 km/h 19.3 km/h 35% 0.0 mm 18 W/m2
19:59 27.3 °C 10.9 °C 1005.4 hPa NE 3.2 km/h 4.8 km/h 36% 0.0 mm 21 W/m2
20:04 27.2 °C 10.8 °C 1005.4 hPa WSW 4.7 km/h 11.3 km/h 36% 0.0 mm 14 W/m2
20:09 27.1 °C 11.2 °C 1005.4 hPa WSW 7.9 km/h 24.1 km/h 37% 0.0 mm 12 W/m2
20:14 27 °C 11.1 °C 1005.4 hPa ESE 9.7 km/h 9.7 km/h 37% 0.0 mm 11 W/m2
20:19 26.9 °C 11 °C 1005.4 hPa WSW 3.2 km/h 24.1 km/h 37% 0.0 mm 11 W/m2
20:24 26.9 °C 11.4 °C 1005.4 hPa NNW 3.2 km/h 4.8 km/h 38% 0.0 mm 5 W/m2
20:29 26.8 °C 11.3 °C 1005.4 hPa NW 4.7 km/h 6.4 km/h 38% 0.0 mm 5 W/m2
20:34 26.8 °C 11.3 °C 1005.4 hPa WNW 7.9 km/h 9.7 km/h 38% 0.0 mm 0 W/m2
20:40 26.8 °C 11.3 °C 1005.4 hPa WSW 1.4 km/h 6.4 km/h 38% 0.0 mm 0 W/m2
20:45 26.7 °C 11.6 °C 1005.4 hPa Calm   3.2 km/h 39% 0.0 mm 0 W/m2
20:50 26.7 °C 11.2 °C 1005.4 hPa NNE 1.4 km/h 4.8 km/h 38% 0.0 mm 0 W/m2
20:55 26.6 °C 11.5 °C 1005.4 hPa SW 3.2 km/h 14.5 km/h 39% 0.0 mm 0 W/m2
21:00 26.5 °C 11.4 °C 1005.4 hPa NNW 1.4 km/h 12.9 km/h 39% 0.0 mm 0 W/m2
21:05 26.4 °C 11.3 °C 1005.4 hPa WNW 4.7 km/h 14.5 km/h 39% 0.0 mm 0 W/m2
21:10 26.3 °C 11.6 °C 1005.4 hPa West 4.7 km/h 4.8 km/h 40% 0.0 mm 0 W/m2
21:15 26.3 °C 11.6 °C 1005.4 hPa NW 1.4 km/h 6.4 km/h 40% 0.0 mm 0 W/m2
21:20 26.2 °C 11.9 °C 1005.8 hPa NW 1.4 km/h 4.8 km/h 41% 0.0 mm 0 W/m2
21:25 26.1 °C 11.8 °C 1005.8 hPa WNW 6.4 km/h 8 km/h 41% 0.0 mm 0 W/m2
21:30 25.9 °C 12 °C 1005.8 hPa WSW 1.4 km/h 4.8 km/h 42% 0.0 mm 0 W/m2
21:35 25.8 °C 12.3 °C 1005.8 hPa NE 1.4 km/h 8 km/h 43% 0.0 mm 0 W/m2
21:40 25.5 °C 12.4 °C 1005.8 hPa NNW 3.2 km/h 4.8 km/h 44% 0.0 mm 0 W/m2
21:45 25.4 °C 12.3 °C 1005.8 hPa Calm   8 km/h 44% 0.0 mm 0 W/m2
21:50 25.4 °C 12.3 °C 1005.8 hPa West 3.2 km/h 4.8 km/h 44% 0.0 mm 0 W/m2
21:55 25.4 °C 12.3 °C 1005.8 hPa NNE 3.2 km/h 8 km/h 44% 0.0 mm 0 W/m2
22:00 25.4 °C 12.3 °C 1005.8 hPa WNW 3.2 km/h 4.8 km/h 44% 0.0 mm 0 W/m2
22:05 25.5 °C 12.7 °C 1005.8 hPa NNW 3.2 km/h 3.2 km/h 45% 0.0 mm 0 W/m2
22:10 25.4 °C 12.6 °C 1005.8 hPa North 1.4 km/h 4.8 km/h 45% 0.0 mm 0 W/m2
22:15 25.4 °C 12.6 °C 1005.8 hPa Calm   9.7 km/h 45% 0.0 mm 0 W/m2
22:20 25.3 °C 12.5 °C 1005.8 hPa NW 1.4 km/h 3.2 km/h 45% 0.0 mm 0 W/m2
22:25 25.3 °C 12.5 °C 1005.8 hPa NW 4.7 km/h 14.5 km/h 45% 0.0 mm 0 W/m2
22:30 25.3 °C 12.5 °C 1005.8 hPa NW 4.7 km/h 6.4 km/h 45% 0.0 mm 0 W/m2
22:35 25.3 °C 12.8 °C 1005.8 hPa WNW 3.2 km/h 3.2 km/h 46% 0.0 mm 0 W/m2
22:40 25.2 °C 12.8 °C 1005.8 hPa WSW 6.4 km/h 17.7 km/h 46% 0.0 mm 0 W/m2
22:46 25.3 °C 12.8 °C 1005.8 hPa West 6.4 km/h 11.3 km/h 46% 0.0 mm 0 W/m2
22:51 25.3 °C 12.8 °C 1005.8 hPa East 4.7 km/h 16.1 km/h 46% 0.0 mm 0 W/m2
22:56 25.3 °C 12.8 °C 1005.8 hPa NW 4.7 km/h 12.9 km/h 46% 0.0 mm 0 W/m2
23:01 25.3 °C 12.8 °C 1005.8 hPa NW 4.7 km/h 9.7 km/h 46% 0.0 mm 0 W/m2
23:06 25.2 °C 13.1 °C 1005.8 hPa NW 25.9 km/h 25.7 km/h 47% 0.0 mm 0 W/m2
23:11 25.2 °C 13.4 °C 1005.8 hPa NNW 7.9 km/h 11.3 km/h 48% 0.0 mm 0 W/m2
23:16 25.1 °C 13.6 °C 1005.8 hPa NNW 6.4 km/h 12.9 km/h 49% 0.0 mm 0 W/m2
23:21 25 °C 13.9 °C 1005.8 hPa WNW 7.9 km/h 16.1 km/h 50% 0.0 mm 0 W/m2
23:26 24.9 °C 14.1 °C 1006.1 hPa NNW 7.9 km/h 12.9 km/h 51% 0.0 mm 0 W/m2
23:31 24.7 °C 14.2 °C 1006.1 hPa WNW 3.2 km/h 11.3 km/h 52% 0.0 mm 0 W/m2
23:36 24.6 °C 14.4 °C 1006.1 hPa WSW 4.7 km/h 16.1 km/h 53% 0.0 mm 0 W/m2
23:41 24.5 °C 14.6 °C 1006.1 hPa NW 4.7 km/h 8 km/h 54% 0.0 mm 0 W/m2
23:46 24.4 °C 15.1 °C 1006.1 hPa West 11.1 km/h 24.1 km/h 56% 0.0 mm 0 W/m2
23:51 24.3 °C 15 °C 1006.4 hPa WSW 3.2 km/h 11.3 km/h 56% 0.0 mm 0 W/m2
23:56 24.2 °C 15.1 °C 1006.4 hPa WNW 16.3 km/h 24.1 km/h 57% 0.0 mm 0 W/m2
Juneau County Weather
Compliments of Weather Underground - 4 mb